Terminal Aerodrome Forecast
Issued by NWS

Home | Current Version | Previous Version | Text Only | Print | Product List | Glossary On
Versions: 1 2 3 4 5 6 7 8 9 10 11 12 13 14 15
000
FTUS45 KPIH 292300 AAA
TAFSUN
TAF AMD
KSUN 292356Z 3000/3024 14008KT P6SM VCTS SCT090CB BKN110 BKN180
      TEMPO 3000/3001 VRB10G20KT P6SM -TSRA BKN090CB OVC110
     FM300300 VRB05KT P6SM VCSH BKN100 OVC130
     FM301300 VRB05KT P6SM SCT090 BKN130
     FM301600 VRB05KT P6SM -SHRA VCTS FEW060CB SCT130 BKN200
     FM302100 31008KT P6SM VCTS FEW050CB BKN130 BKN200
      AMD LTD TO CLD VIS AND WIND 3005/3013=

USA.gov is the U.S. government's official web portal to all federal, state and local government web resources and services.